createdAt,value
2022-10-21T00:01:09.909Z,0.00
2022-10-21T00:06:09.850Z,0.00
2022-10-21T00:11:09.784Z,0.00
2022-10-21T00:16:09.721Z,0.00
2022-10-21T00:21:09.655Z,0.00
2022-10-21T00:26:09.585Z,0.00
2022-10-21T00:31:09.536Z,0.00
2022-10-21T00:36:09.463Z,0.00
2022-10-21T00:41:09.418Z,0.00
2022-10-21T00:46:09.321Z,0.00
2022-10-21T00:51:09.277Z,0.00
2022-10-21T00:56:12.851Z,0.00
2022-10-21T01:01:10.217Z,0.00
2022-10-21T01:06:09.088Z,0.00
2022-10-21T01:11:09.005Z,0.00
2022-10-21T01:16:08.954Z,0.00
2022-10-21T01:21:08.865Z,0.00
2022-10-21T01:26:08.836Z,0.00
2022-10-21T01:31:08.816Z,0.00
2022-10-21T01:36:08.686Z,0.00
2022-10-21T01:41:08.638Z,0.00
2022-10-21T01:46:08.547Z,0.00
2022-10-21T01:51:08.497Z,0.00
2022-10-21T01:56:08.437Z,0.00
2022-10-21T02:01:08.442Z,0.00
2022-10-21T02:06:08.307Z,0.00
2022-10-21T02:11:08.251Z,0.00
2022-10-21T02:16:08.191Z,0.00
2022-10-21T02:21:08.163Z,0.00
2022-10-21T02:26:08.062Z,0.00
2022-10-21T02:31:07.988Z,0.00
2022-10-21T02:36:07.933Z,0.00
2022-10-21T02:41:07.860Z,0.00
2022-10-21T02:46:07.800Z,0.00
2022-10-21T02:51:07.743Z,0.00
2022-10-21T02:56:07.671Z,0.00
2022-10-21T03:01:07.645Z,0.00
2022-10-21T03:06:07.574Z,0.00
2022-10-21T03:11:07.498Z,0.00
2022-10-21T03:16:07.518Z,0.00
2022-10-21T03:21:07.342Z,0.00
2022-10-21T03:26:07.270Z,0.00
2022-10-21T03:31:07.234Z,0.00
2022-10-21T03:36:07.151Z,0.00
2022-10-21T03:41:07.094Z,0.00
2022-10-21T03:46:07.069Z,0.00
2022-10-21T03:51:06.954Z,0.00
2022-10-21T03:56:06.922Z,0.00
2022-10-21T04:01:06.854Z,0.00
2022-10-21T04:06:06.756Z,0.00
2022-10-21T04:11:07.032Z,0.00
2022-10-21T04:16:06.656Z,0.00
2022-10-21T04:21:06.584Z,0.00
2022-10-21T04:26:06.506Z,0.00
2022-10-21T04:31:06.457Z,0.00
2022-10-21T04:36:06.428Z,0.00
2022-10-21T04:41:06.317Z,0.00
2022-10-21T04:46:07.633Z,0.00
2022-10-21T04:51:06.219Z,0.00
2022-10-21T04:56:06.170Z,0.00
2022-10-21T05:01:06.087Z,0.00
2022-10-21T05:06:06.017Z,0.00
2022-10-21T05:11:05.974Z,1.00
2022-10-21T05:16:05.879Z,3.00
2022-10-21T05:21:05.850Z,10.00
2022-10-21T05:26:05.751Z,28.00
2022-10-21T05:31:05.708Z,59.00
2022-10-21T05:36:05.630Z,105.00
2022-10-21T05:41:05.573Z,159.00
2022-10-21T05:46:05.513Z,244.00
2022-10-21T05:51:05.453Z,409.00
2022-10-21T05:56:05.385Z,525.00
2022-10-21T06:01:05.320Z,608.00
2022-10-21T06:06:05.254Z,811.00
2022-10-21T06:11:05.190Z,1064.00
2022-10-21T06:21:05.053Z,1267.00
2022-10-21T06:26:05.006Z,1140.00
2022-10-21T06:31:04.942Z,1124.00
2022-10-21T06:36:04.863Z,1209.00
2022-10-21T06:41:07.974Z,1452.00
2022-10-21T06:46:05.747Z,1723.00
2022-10-21T06:51:04.663Z,1954.00
2022-10-21T06:56:04.635Z,1891.00
2022-10-21T07:01:04.575Z,2729.00
2022-10-21T07:06:04.495Z,3702.00
2022-10-21T07:11:04.435Z,4062.00
2022-10-21T07:16:04.360Z,3669.00
2022-10-21T07:21:04.306Z,4047.00
2022-10-21T07:26:04.245Z,4934.00
2022-10-21T07:31:04.177Z,5603.00
2022-10-21T07:36:04.105Z,7506.00
2022-10-21T07:41:04.065Z,7105.00
2022-10-21T07:46:06.812Z,5809.00
2022-10-21T07:51:03.917Z,6150.00
2022-10-21T07:56:03.867Z,9557.00
2022-10-21T08:01:03.900Z,10868.00
2022-10-21T08:06:03.753Z,10348.00
2022-10-21T08:11:03.668Z,8507.00
2022-10-21T08:16:03.610Z,7158.00
2022-10-21T08:21:03.541Z,7015.00
2022-10-21T08:26:03.480Z,8394.00
2022-10-21T08:31:03.454Z,7813.00
2022-10-21T08:36:03.349Z,10603.00
2022-10-21T08:41:03.299Z,9188.00
2022-10-21T08:46:03.209Z,9516.00
2022-10-21T08:51:03.162Z,10020.00
2022-10-21T08:56:03.142Z,9946.00
2022-10-21T09:01:03.012Z,11132.00
2022-10-21T09:06:02.970Z,11538.00
2022-10-21T09:11:02.903Z,12894.00
2022-10-21T09:16:02.836Z,12404.00
2022-10-21T09:21:05.696Z,10377.00
2022-10-21T09:26:02.715Z,10227.00
2022-10-21T09:31:02.649Z,10525.00
2022-10-21T09:36:02.591Z,11684.00
2022-10-21T09:41:02.536Z,11716.00
2022-10-21T09:46:02.457Z,10677.00
2022-10-21T09:51:02.408Z,11211.00
2022-10-21T09:56:02.314Z,10007.00
2022-10-21T10:01:02.265Z,9249.00
2022-10-21T10:06:02.206Z,9494.00
2022-10-21T10:11:02.152Z,11334.00
2022-10-21T10:16:02.082Z,10431.00
2022-10-21T10:21:02.018Z,10029.00
2022-10-21T10:26:01.947Z,10832.00
2022-10-21T10:31:01.890Z,10732.00
2022-10-21T10:36:03.330Z,10718.00
2022-10-21T10:41:01.770Z,8459.00
2022-10-21T10:46:01.701Z,7986.00
2022-10-21T10:51:01.631Z,7447.00
2022-10-21T10:56:01.578Z,6308.00
2022-10-21T11:01:01.572Z,5847.00
2022-10-21T11:06:01.444Z,5851.00
2022-10-21T11:11:01.393Z,7069.00
2022-10-21T11:16:01.315Z,9081.00
2022-10-21T11:21:01.255Z,8915.00
2022-10-21T11:26:01.198Z,7564.00
2022-10-21T11:31:01.145Z,8371.00
2022-10-21T11:36:01.066Z,10210.00
2022-10-21T11:41:01.005Z,10577.00
2022-10-21T11:46:00.938Z,10123.00
2022-10-21T11:51:03.735Z,7706.00
2022-10-21T11:56:02.653Z,6321.00
2022-10-21T12:01:00.753Z,6608.00
2022-10-21T12:06:00.686Z,5900.00
2022-10-21T12:11:00.639Z,9366.00
2022-10-21T12:16:00.538Z,11778.00
2022-10-21T12:21:00.566Z,12497.00
2022-10-21T12:26:00.433Z,8472.00
2022-10-21T12:31:00.374Z,9328.00
2022-10-21T12:36:00.294Z,9789.00
2022-10-21T12:41:00.228Z,8309.00
2022-10-21T12:46:00.177Z,9601.00
2022-10-21T12:51:00.101Z,6478.00
2022-10-21T12:56:00.033Z,4744.00
2022-10-21T13:01:00.059Z,4486.00
2022-10-21T13:05:59.912Z,5353.00
2022-10-21T13:10:59.888Z,6489.00
2022-10-21T13:15:59.787Z,9460.00
2022-10-21T13:20:59.723Z,10853.00
2022-10-21T13:25:59.672Z,10080.00
2022-10-21T13:30:59.576Z,10811.00
2022-10-21T13:35:59.846Z,6642.00
2022-10-21T13:40:59.467Z,6210.00
2022-10-21T13:45:59.431Z,6668.00
2022-10-21T13:50:59.349Z,6180.00
2022-10-21T13:55:59.279Z,6748.00
2022-10-21T14:00:59.360Z,6206.00
2022-10-21T14:05:59.142Z,5962.00
2022-10-21T14:10:59.079Z,5730.00
2022-10-21T14:15:59.012Z,4966.00
2022-10-21T14:20:58.971Z,5932.00
2022-10-21T14:25:58.883Z,5266.00
2022-10-21T14:30:58.877Z,5421.00
2022-10-21T14:35:58.766Z,5241.00
2022-10-21T14:40:58.712Z,5926.00
2022-10-21T14:45:58.664Z,4987.00
2022-10-21T14:50:58.597Z,3465.00
2022-10-21T14:55:58.516Z,3519.00
2022-10-21T15:00:58.457Z,3520.00
2022-10-21T15:05:58.394Z,4261.00
2022-10-21T15:10:58.335Z,2739.00
2022-10-21T15:15:58.443Z,2125.00
2022-10-21T15:20:58.235Z,1941.00
2022-10-21T15:25:58.131Z,1827.00
2022-10-21T15:30:58.081Z,1838.00
2022-10-21T15:35:58.034Z,1684.00
2022-10-21T15:40:57.961Z,1357.00
2022-10-21T15:45:57.892Z,1017.00
2022-10-21T15:50:57.834Z,771.00
2022-10-21T15:55:57.772Z,608.00
2022-10-21T16:00:57.744Z,449.00
2022-10-21T16:05:57.671Z,251.00
2022-10-21T16:10:57.606Z,128.00
2022-10-21T16:15:57.515Z,83.00
2022-10-21T16:20:57.476Z,49.00
2022-10-21T16:25:57.396Z,24.00
2022-10-21T16:30:57.376Z,10.00
2022-10-21T16:35:57.268Z,3.00
2022-10-21T16:40:57.217Z,1.00
2022-10-21T16:45:57.158Z,0.00
2022-10-21T16:50:57.083Z,0.00
2022-10-21T16:55:57.020Z,0.00
2022-10-21T17:00:56.995Z,0.00
2022-10-21T17:05:56.902Z,0.00
2022-10-21T17:10:56.844Z,0.00
2022-10-21T17:15:56.764Z,0.00
2022-10-21T17:20:56.713Z,0.00
2022-10-21T17:25:56.632Z,0.00
2022-10-21T17:30:56.584Z,0.00
2022-10-21T17:35:56.513Z,0.00
2022-10-21T17:40:56.455Z,0.00
2022-10-21T17:45:56.407Z,0.00
2022-10-21T17:50:56.321Z,0.00
2022-10-21T17:55:56.309Z,0.00
2022-10-21T18:00:56.242Z,0.00
2022-10-21T18:05:56.124Z,0.00
2022-10-21T18:10:56.068Z,0.00
2022-10-21T18:15:56.020Z,0.00
2022-10-21T18:20:55.949Z,0.00
2022-10-21T18:25:55.879Z,0.00
2022-10-21T18:30:55.819Z,0.00
2022-10-21T18:35:55.740Z,0.00
2022-10-21T18:41:01.838Z,0.00
2022-10-21T18:45:56.614Z,0.00
2022-10-21T18:50:55.562Z,0.00
2022-10-21T18:55:55.484Z,0.00
2022-10-21T19:00:55.574Z,0.00
2022-10-21T19:05:55.358Z,0.00
2022-10-21T19:10:55.294Z,0.00
2022-10-21T19:15:55.277Z,0.00
2022-10-21T19:20:55.173Z,0.00
2022-10-21T19:25:55.123Z,0.00
2022-10-21T19:30:55.038Z,0.00
2022-10-21T19:35:54.967Z,0.00
2022-10-21T19:40:54.911Z,0.00
2022-10-21T19:45:55.018Z,0.00
2022-10-21T19:50:54.760Z,0.00
2022-10-21T19:55:54.710Z,0.00
2022-10-21T20:00:54.708Z,0.00
2022-10-21T20:05:54.609Z,0.00
2022-10-21T20:10:54.554Z,0.00
2022-10-21T20:15:54.452Z,0.00
2022-10-21T20:20:54.407Z,0.00
2022-10-21T20:25:54.340Z,0.00
2022-10-21T20:30:54.282Z,0.00
2022-10-21T20:35:54.220Z,0.00
2022-10-21T20:40:54.142Z,0.00
2022-10-21T20:45:54.155Z,0.00
2022-10-21T20:50:54.032Z,0.00
2022-10-21T20:55:53.964Z,0.00
2022-10-21T21:00:53.905Z,0.00
2022-10-21T21:05:53.840Z,0.00
2022-10-21T21:10:53.755Z,0.00
2022-10-21T21:15:53.696Z,0.00
2022-10-21T21:20:53.734Z,0.00
2022-10-21T21:25:53.570Z,0.00
2022-10-21T21:30:53.525Z,0.00
2022-10-21T21:35:53.447Z,0.00
2022-10-21T21:40:53.388Z,0.00
2022-10-21T21:45:53.327Z,0.00
2022-10-21T21:50:53.266Z,0.00
2022-10-21T21:55:53.189Z,0.00
2022-10-21T22:00:53.148Z,0.00
2022-10-21T22:05:53.069Z,0.00
2022-10-21T22:10:53.039Z,0.00
2022-10-21T22:15:52.940Z,0.00
2022-10-21T22:20:52.862Z,0.00
2022-10-21T22:25:52.812Z,0.00
2022-10-21T22:30:52.743Z,0.00
2022-10-21T22:35:52.722Z,0.00
2022-10-21T22:40:52.626Z,0.00
2022-10-21T22:45:55.248Z,0.00
2022-10-21T22:50:53.494Z,0.00
2022-10-21T22:55:52.432Z,0.00
2022-10-21T23:00:52.435Z,0.00
2022-10-21T23:05:52.296Z,0.00
2022-10-21T23:10:52.229Z,0.00
2022-10-21T23:15:52.176Z,0.00
2022-10-21T23:20:52.107Z,0.00
2022-10-21T23:25:52.038Z,0.00
2022-10-21T23:30:51.986Z,0.00
2022-10-21T23:35:51.917Z,0.00
2022-10-21T23:40:51.848Z,0.00
2022-10-21T23:45:51.794Z,0.00
2022-10-21T23:50:51.739Z,0.00
2022-10-21T23:55:51.668Z,0.00
